Terminal Aerodrome Forecast
Issued by NWS Shreveport, LA

Home | Current Version | Previous Version | Text Only | Print | Product List | Glossary On
Versions: 1 2 3 4 5 6 7 8 9 10 11 12
254
FTUS44 KSHV 211121
TAFTYR
TAF
KTYR 211121Z 2112/2212 16006KT P6SM SKC
     FM211400 19006KT P6SM FEW030
     FM211700 17007KT P6SM SCT045 SCT250
     FM212100 14007KT P6SM SCT060 SCT250
     FM220000 18005KT P6SM SKC=

USA.gov is the U.S. government's official web portal to all federal, state and local government web resources and services.